createdAt,value
2023-04-02T00:00:30.237Z,6.88
2023-04-02T00:01:30.362Z,6.78
2023-04-02T00:02:31.175Z,6.85
2023-04-02T00:03:30.537Z,6.88
2023-04-02T00:04:29.467Z,6.86
2023-04-02T00:05:30.088Z,6.85
2023-04-02T00:06:29.487Z,6.82
2023-04-02T00:07:29.467Z,6.81
2023-04-02T00:08:29.485Z,6.83
2023-04-02T00:09:29.486Z,6.85
2023-04-02T00:10:29.487Z,6.82
2023-04-02T00:11:29.773Z,6.81
2023-04-02T00:12:29.907Z,6.78
2023-04-02T00:13:29.503Z,6.79
2023-04-02T00:14:29.515Z,6.79
2023-04-02T00:15:29.515Z,6.79
2023-04-02T00:16:29.971Z,6.82
2023-04-02T00:17:30.159Z,6.79
2023-04-02T00:18:30.065Z,6.79
2023-04-02T00:19:29.358Z,6.75
2023-04-02T00:20:29.572Z,6.75
2023-04-02T00:21:30.179Z,6.74
2023-04-02T00:22:29.355Z,6.73
2023-04-02T00:23:29.360Z,6.71
2023-04-02T00:24:29.403Z,6.67
2023-04-02T00:25:29.406Z,6.65
2023-04-02T00:26:29.390Z,6.61
2023-04-02T00:27:29.402Z,6.63
2023-04-02T00:28:29.525Z,6.57
2023-04-02T00:29:29.318Z,6.60
2023-04-02T00:30:29.295Z,6.57
2023-04-02T00:31:29.327Z,6.55
2023-04-02T00:32:29.319Z,6.60
2023-04-02T00:33:29.324Z,6.55
2023-04-02T00:34:29.360Z,6.50
2023-04-02T00:35:29.302Z,6.49
2023-04-02T00:36:29.244Z,6.47
2023-04-02T00:37:29.367Z,6.47
2023-04-02T00:38:29.256Z,6.47
2023-04-02T00:39:29.265Z,6.43
2023-04-02T00:40:29.275Z,6.43
2023-04-02T00:41:29.202Z,6.43
2023-04-02T00:42:29.286Z,6.40
2023-04-02T00:43:29.292Z,6.43
2023-04-02T00:44:29.514Z,6.43
2023-04-02T00:45:29.239Z,6.45
2023-04-02T00:46:29.516Z,6.43
2023-04-02T00:47:29.523Z,6.46
2023-04-02T00:48:29.511Z,6.37
2023-04-02T00:49:29.290Z,6.38
2023-04-02T00:50:29.545Z,6.40
2023-04-02T00:51:29.563Z,6.45
2023-04-02T00:52:29.363Z,6.40
2023-04-02T00:53:29.136Z,6.37
2023-04-02T00:54:29.373Z,6.32
2023-04-02T00:55:29.374Z,6.34
2023-04-02T00:56:29.131Z,6.31
2023-04-02T00:57:29.245Z,6.37
2023-04-02T00:58:29.094Z,6.34
2023-04-02T00:59:29.107Z,6.34
2023-04-02T01:00:29.207Z,6.34
2023-04-02T01:01:29.138Z,6.35
2023-04-02T01:02:29.313Z,6.32
2023-04-02T01:03:29.290Z,6.35
2023-04-02T01:04:29.077Z,6.32
2023-04-02T01:05:29.049Z,6.30
2023-04-02T01:06:29.278Z,6.32
2023-04-02T01:07:29.247Z,6.25
2023-04-02T01:08:29.028Z,6.27
2023-04-02T01:09:29.089Z,6.21
2023-04-02T01:10:29.288Z,6.18
2023-04-02T01:11:29.003Z,6.21
2023-04-02T01:12:29.020Z,6.15
2023-04-02T01:13:29.286Z,6.13
2023-04-02T01:14:29.304Z,6.08
2023-04-02T01:15:29.156Z,6.09
2023-04-02T01:16:29.041Z,6.11
2023-04-02T01:17:29.138Z,6.12
2023-04-02T01:18:29.123Z,6.09
2023-04-02T01:19:28.994Z,6.06
2023-04-02T01:20:29.156Z,6.03
2023-04-02T01:21:29.122Z,6.05
2023-04-02T01:22:29.370Z,6.11
2023-04-02T01:23:29.363Z,6.11
2023-04-02T01:24:29.152Z,6.16
2023-04-02T01:25:28.969Z,6.15
2023-04-02T01:26:29.386Z,6.12
2023-04-02T01:27:29.384Z,6.09
2023-04-02T01:28:29.412Z,6.11
2023-04-02T01:29:29.023Z,6.08
2023-04-02T01:30:29.196Z,6.08
2023-04-02T01:31:29.455Z,6.08
2023-04-02T01:32:29.644Z,6.08
2023-04-02T01:33:28.858Z,6.05
2023-04-02T01:34:28.882Z,6.05
2023-04-02T01:35:29.036Z,6.00
2023-04-02T01:36:29.666Z,5.98
2023-04-02T01:37:29.669Z,6.03
2023-04-02T01:38:28.830Z,6.06
2023-04-02T01:39:29.655Z,6.00
2023-04-02T01:40:29.071Z,5.95
2023-04-02T01:41:28.795Z,5.95
2023-04-02T01:42:28.850Z,5.98
2023-04-02T01:43:28.820Z,5.95
2023-04-02T01:44:29.069Z,5.94
2023-04-02T01:45:29.723Z,5.94
2023-04-02T01:46:28.795Z,5.94
2023-04-02T01:47:29.166Z,5.91
2023-04-02T01:48:29.305Z,5.90
2023-04-02T01:49:29.132Z,5.95
2023-04-02T01:50:28.759Z,5.94
2023-04-02T01:51:28.752Z,5.93
2023-04-02T01:52:28.744Z,5.97
2023-04-02T01:53:28.749Z,5.94
2023-04-02T01:54:28.786Z,5.91
2023-04-02T01:55:28.730Z,5.91
2023-04-02T01:56:28.777Z,5.94
2023-04-02T01:57:29.022Z,5.88
2023-04-02T01:58:28.963Z,5.93
2023-04-02T01:59:29.003Z,5.95
2023-04-02T02:00:28.990Z,5.94
2023-04-02T02:01:28.806Z,5.90
2023-04-02T02:02:28.866Z,5.84
2023-04-02T02:03:29.199Z,5.80
2023-04-02T02:04:28.930Z,5.75
2023-04-02T02:05:28.799Z,5.72
2023-04-02T02:06:29.426Z,5.75
2023-04-02T02:07:28.650Z,5.72
2023-04-02T02:08:28.647Z,5.69
2023-04-02T02:09:28.620Z,5.70
2023-04-02T02:10:28.628Z,5.70
2023-04-02T02:11:28.636Z,5.66
2023-04-02T02:12:28.639Z,5.62
2023-04-02T02:13:28.588Z,5.69
2023-04-02T02:14:28.658Z,5.72
2023-04-02T02:15:28.685Z,5.75
2023-04-02T02:16:28.726Z,5.67
2023-04-02T02:17:28.743Z,5.67
2023-04-02T02:18:28.744Z,5.69
2023-04-02T02:19:28.735Z,5.61
2023-04-02T02:20:28.735Z,5.59
2023-04-02T02:21:28.741Z,5.66
2023-04-02T02:22:28.767Z,5.62
2023-04-02T02:23:28.919Z,5.57
2023-04-02T02:24:28.529Z,5.58
2023-04-02T02:25:28.730Z,5.58
2023-04-02T02:26:28.946Z,5.54
2023-04-02T02:27:28.978Z,5.62
2023-04-02T02:28:28.953Z,5.62
2023-04-02T02:29:28.562Z,5.65
2023-04-02T02:30:28.555Z,5.62
2023-04-02T02:31:28.591Z,5.62
2023-04-02T02:32:28.520Z,5.62
2023-04-02T02:33:28.585Z,5.65
2023-04-02T02:34:28.586Z,5.62
2023-04-02T02:35:28.658Z,5.62
2023-04-02T02:36:28.862Z,5.65
2023-04-02T02:37:28.462Z,5.61
2023-04-02T02:38:28.620Z,5.58
2023-04-02T02:39:28.826Z,5.54
2023-04-02T02:40:28.878Z,5.55
2023-04-02T02:41:29.068Z,5.54
2023-04-02T02:42:28.438Z,5.52
2023-04-02T02:43:29.072Z,5.55
2023-04-02T02:44:28.704Z,5.57
2023-04-02T02:45:29.070Z,5.55
2023-04-02T02:46:28.674Z,5.55
2023-04-02T02:47:29.150Z,5.58
2023-04-02T02:48:28.468Z,5.52
2023-04-02T02:49:28.427Z,5.51
2023-04-02T02:50:28.538Z,5.50
2023-04-02T02:51:28.354Z,5.52
2023-04-02T02:52:28.549Z,5.48
2023-04-02T02:53:28.829Z,5.43
2023-04-02T02:54:28.965Z,5.47
2023-04-02T02:55:29.129Z,5.44
2023-04-02T02:56:28.925Z,5.44
2023-04-02T02:57:28.943Z,5.43
2023-04-02T02:58:28.388Z,5.43
2023-04-02T02:59:28.478Z,5.43
2023-04-02T03:00:28.395Z,5.48
2023-04-02T03:01:28.394Z,5.43
2023-04-02T03:02:28.499Z,5.43
2023-04-02T03:03:28.668Z,5.40
2023-04-02T03:04:28.398Z,5.43
2023-04-02T03:05:28.590Z,5.43
2023-04-02T03:06:28.595Z,5.40
2023-04-02T03:07:28.653Z,5.34
2023-04-02T03:08:28.261Z,5.37
2023-04-02T03:09:28.258Z,5.39
2023-04-02T03:10:28.224Z,5.39
2023-04-02T03:11:28.261Z,5.37
2023-04-02T03:12:28.437Z,5.33
2023-04-02T03:13:28.430Z,5.40
2023-04-02T03:14:28.279Z,5.39
2023-04-02T03:15:28.339Z,5.37
2023-04-02T03:16:28.508Z,5.36
2023-04-02T03:17:28.277Z,5.34
2023-04-02T03:18:28.263Z,5.30
2023-04-02T03:19:28.261Z,5.33
2023-04-02T03:20:28.495Z,5.29
2023-04-02T03:21:28.318Z,5.24
2023-04-02T03:22:28.277Z,5.24
2023-04-02T03:23:28.487Z,5.21
2023-04-02T03:24:28.714Z,5.21
2023-04-02T03:25:28.144Z,5.21
2023-04-02T03:26:28.308Z,5.21
2023-04-02T03:27:28.159Z,5.22
2023-04-02T03:28:28.339Z,5.15
2023-04-02T03:29:28.335Z,5.14
2023-04-02T03:30:28.120Z,5.15
2023-04-02T03:31:28.416Z,5.03
2023-04-02T03:32:28.171Z,4.98
2023-04-02T03:33:28.973Z,5.00
2023-04-02T03:34:28.163Z,5.01
2023-04-02T03:35:28.779Z,5.00
2023-04-02T03:36:28.941Z,5.00
2023-04-02T03:37:29.092Z,4.97
2023-04-02T03:38:28.590Z,4.97
2023-04-02T03:39:28.872Z,4.98
2023-04-02T03:40:28.476Z,5.00
2023-04-02T03:41:28.202Z,4.96
2023-04-02T03:42:28.017Z,4.91
2023-04-02T03:43:28.484Z,4.91
2023-04-02T03:44:28.022Z,4.89
2023-04-02T03:45:28.226Z,4.83
2023-04-02T03:46:28.109Z,4.88
2023-04-02T03:47:27.994Z,4.85
2023-04-02T03:48:28.041Z,4.83
2023-04-02T03:49:28.045Z,4.82
2023-04-02T03:50:28.070Z,4.77
2023-04-02T03:51:28.052Z,4.82
2023-04-02T03:52:28.080Z,4.79
2023-04-02T03:53:28.109Z,4.83
2023-04-02T03:54:28.125Z,4.79
2023-04-02T03:55:28.179Z,4.85
2023-04-02T03:56:28.052Z,4.86
2023-04-02T03:57:27.987Z,4.88
2023-04-02T03:58:28.188Z,4.82
2023-04-02T03:59:27.932Z,4.78
2023-04-02T04:00:28.404Z,4.74
2023-04-02T04:01:28.333Z,4.75
2023-04-02T04:02:28.637Z,4.74
2023-04-02T04:03:28.585Z,4.71
2023-04-02T04:04:28.227Z,4.72
2023-04-02T04:05:28.658Z,4.69
2023-04-02T04:06:28.787Z,4.60
2023-04-02T04:07:28.166Z,4.59
2023-04-02T04:08:28.455Z,4.63
2023-04-02T04:09:27.882Z,4.57
2023-04-02T04:10:28.730Z,4.59
2023-04-02T04:11:28.711Z,4.63
2023-04-02T04:12:27.990Z,4.60
2023-04-02T04:13:28.201Z,4.64
2023-04-02T04:14:28.096Z,4.60
2023-04-02T04:15:28.762Z,4.56
2023-04-02T04:16:27.852Z,4.53
2023-04-02T04:17:28.267Z,4.54
2023-04-02T04:18:28.321Z,4.56
2023-04-02T04:19:28.646Z,4.54
2023-04-02T04:20:27.930Z,4.51
2023-04-02T04:21:27.753Z,4.56
2023-04-02T04:22:27.757Z,4.51
2023-04-02T04:23:27.742Z,4.49
2023-04-02T04:24:27.868Z,4.54
2023-04-02T04:25:27.870Z,4.54
2023-04-02T04:26:27.876Z,4.59
2023-04-02T04:27:27.803Z,4.56
2023-04-02T04:28:27.980Z,4.56
2023-04-02T04:29:28.103Z,4.57
2023-04-02T04:30:27.898Z,4.59
2023-04-02T04:31:28.161Z,4.56
2023-04-02T04:32:28.163Z,4.51
2023-04-02T04:33:28.219Z,4.51
2023-04-02T04:34:28.345Z,4.43
2023-04-02T04:35:27.769Z,4.46
2023-04-02T04:36:27.648Z,4.42
2023-04-02T04:37:27.665Z,4.45
2023-04-02T04:38:27.702Z,4.43
2023-04-02T04:39:27.637Z,4.41
2023-04-02T04:40:27.662Z,4.39
2023-04-02T04:41:27.670Z,4.39
2023-04-02T04:42:27.646Z,4.39
2023-04-02T04:43:27.678Z,4.41
2023-04-02T04:44:27.681Z,4.39
2023-04-02T04:45:27.702Z,4.41
2023-04-02T04:46:27.689Z,4.38
2023-04-02T04:47:27.633Z,4.39
2023-04-02T04:48:27.633Z,4.46
2023-04-02T04:49:27.572Z,4.45
2023-04-02T04:50:27.642Z,4.48
2023-04-02T04:51:27.637Z,4.45
2023-04-02T04:52:27.644Z,4.39
2023-04-02T04:53:27.538Z,4.41
2023-04-02T04:54:27.670Z,4.39
2023-04-02T04:55:27.686Z,4.42
2023-04-02T04:56:27.565Z,4.43
2023-04-02T04:57:27.635Z,4.42
2023-04-02T04:58:27.499Z,4.42
2023-04-02T04:59:27.598Z,4.42
2023-04-02T05:00:27.611Z,4.31
2023-04-02T05:01:27.771Z,4.34
2023-04-02T05:02:27.706Z,4.38
2023-04-02T05:03:27.800Z,4.38
2023-04-02T05:04:27.534Z,4.41
2023-04-02T05:05:27.805Z,4.42
2023-04-02T05:06:27.821Z,4.42
2023-04-02T05:07:27.530Z,4.35
2023-04-02T05:08:27.633Z,4.34
2023-04-02T05:09:27.849Z,4.35
2023-04-02T05:10:27.874Z,4.34
2023-04-02T05:11:27.451Z,4.34
2023-04-02T05:12:27.665Z,4.36
2023-04-02T05:13:27.431Z,4.35
2023-04-02T05:14:27.430Z,4.39
2023-04-02T05:15:27.412Z,4.35
2023-04-02T05:16:27.582Z,4.36
2023-04-02T05:17:27.492Z,4.34
2023-04-02T05:18:27.401Z,4.30
2023-04-02T05:19:27.488Z,4.30
2023-04-02T05:20:28.808Z,4.28
2023-04-02T05:21:27.478Z,4.24
2023-04-02T05:22:27.346Z,4.26
2023-04-02T05:23:27.437Z,4.23
2023-04-02T05:24:27.513Z,4.27
2023-04-02T05:25:27.496Z,4.24
2023-04-02T05:26:27.358Z,4.21
2023-04-02T05:27:27.560Z,4.28
2023-04-02T05:28:27.564Z,4.23
2023-04-02T05:29:27.587Z,4.23
2023-04-02T05:30:27.583Z,4.20
2023-04-02T05:31:27.407Z,4.24
2023-04-02T05:32:27.374Z,4.24
2023-04-02T05:33:27.322Z,4.21
2023-04-02T05:34:27.315Z,4.20
2023-04-02T05:35:27.303Z,4.24
2023-04-02T05:36:27.465Z,4.23
2023-04-02T05:37:27.438Z,4.23
2023-04-02T05:38:27.444Z,4.21
2023-04-02T05:39:27.681Z,4.20
2023-04-02T05:40:27.554Z,4.24
2023-04-02T05:41:27.349Z,4.28
2023-04-02T05:42:27.252Z,4.26
2023-04-02T05:43:27.359Z,4.24
2023-04-02T05:44:27.683Z,4.18
2023-04-02T05:45:27.508Z,4.20
2023-04-02T05:46:27.230Z,4.23
2023-04-02T05:47:27.336Z,4.23
2023-04-02T05:48:27.691Z,4.24
2023-04-02T05:49:27.695Z,4.24
2023-04-02T05:50:27.517Z,4.26
2023-04-02T05:51:27.333Z,4.17
2023-04-02T05:52:27.829Z,4.21
2023-04-02T05:53:27.220Z,4.21
2023-04-02T05:54:27.836Z,4.21
2023-04-02T05:55:27.118Z,4.20
2023-04-02T05:56:27.855Z,4.21
2023-04-02T05:57:41.706Z,4.26
2023-04-02T05:59:27.172Z,4.20
2023-04-02T06:00:27.879Z,4.13
2023-04-02T06:01:27.683Z,4.13
2023-04-02T06:02:27.698Z,4.13
2023-04-02T06:03:27.472Z,4.21
2023-04-02T06:04:27.419Z,4.20
2023-04-02T06:05:27.098Z,4.20
2023-04-02T06:06:27.622Z,4.20
2023-04-02T06:07:27.220Z,4.21
2023-04-02T06:08:27.527Z,4.21
2023-04-02T06:09:27.238Z,4.21
2023-04-02T06:10:27.055Z,4.20
2023-04-02T06:11:27.047Z,4.20
2023-04-02T06:12:27.138Z,4.16
2023-04-02T06:13:27.159Z,4.20
2023-04-02T06:14:27.284Z,4.18
2023-04-02T06:15:27.021Z,4.18
2023-04-02T06:16:27.193Z,4.21
2023-04-02T06:17:27.049Z,4.26
2023-04-02T06:18:27.376Z,4.26
2023-04-02T06:19:26.984Z,4.28
2023-04-02T06:20:26.981Z,4.27
2023-04-02T06:21:26.992Z,4.26
2023-04-02T06:22:26.999Z,4.20
2023-04-02T06:23:27.018Z,4.13
2023-04-02T06:24:26.945Z,4.13
2023-04-02T06:25:27.032Z,4.16
2023-04-02T06:26:26.956Z,4.16
2023-04-02T06:27:26.967Z,4.10
2023-04-02T06:28:26.977Z,4.10
2023-04-02T06:29:26.958Z,4.09
2023-04-02T06:30:27.085Z,4.08
2023-04-02T06:31:27.089Z,4.12
2023-04-02T06:32:27.291Z,4.16
2023-04-02T06:33:26.895Z,4.10
2023-04-02T06:34:26.869Z,4.13
2023-04-02T06:35:27.215Z,4.13
2023-04-02T06:36:26.891Z,4.13
2023-04-02T06:37:26.892Z,4.17
2023-04-02T06:38:27.232Z,4.10
2023-04-02T06:39:27.253Z,4.10
2023-04-02T06:40:26.896Z,4.16
2023-04-02T06:41:27.292Z,4.06
2023-04-02T06:42:27.261Z,4.12
2023-04-02T06:43:27.274Z,4.16
2023-04-02T06:44:26.870Z,4.16
2023-04-02T06:45:26.958Z,4.12
2023-04-02T06:46:26.934Z,4.17
2023-04-02T06:47:26.919Z,4.23
2023-04-02T06:48:26.894Z,4.26
2023-04-02T06:49:26.804Z,4.18
2023-04-02T06:50:27.056Z,4.17
2023-04-02T06:51:26.989Z,4.26
2023-04-02T06:52:27.022Z,4.23
2023-04-02T06:53:27.134Z,4.20
2023-04-02T06:54:26.934Z,4.18
2023-04-02T06:55:27.181Z,4.16
2023-04-02T06:56:27.234Z,4.20
2023-04-02T06:57:27.012Z,4.21
2023-04-02T06:58:27.379Z,4.24
2023-04-02T06:59:26.762Z,4.30
2023-04-02T07:00:27.391Z,4.28
2023-04-02T07:01:27.230Z,4.30
2023-04-02T07:02:26.819Z,4.26
2023-04-02T07:03:27.227Z,4.34
2023-04-02T07:04:26.872Z,4.35
2023-04-02T07:05:26.802Z,4.34
2023-04-02T07:06:27.030Z,4.35
2023-04-02T07:07:26.717Z,4.28
2023-04-02T07:08:27.527Z,4.31
2023-04-02T07:09:26.829Z,4.35
2023-04-02T07:10:27.320Z,4.27
2023-04-02T07:11:26.700Z,4.26
2023-04-02T07:12:27.466Z,4.28
2023-04-02T07:13:27.552Z,4.27
2023-04-02T07:14:26.865Z,4.34
2023-04-02T07:15:26.933Z,4.31
2023-04-02T07:16:26.769Z,4.31
2023-04-02T07:17:27.460Z,4.31
2023-04-02T07:18:26.688Z,4.30
2023-04-02T07:19:26.899Z,4.30
2023-04-02T07:20:26.803Z,4.30
2023-04-02T07:21:26.590Z,4.27
2023-04-02T07:22:26.581Z,4.27
2023-04-02T07:23:26.592Z,4.27
2023-04-02T07:24:26.588Z,4.26
2023-04-02T07:25:26.603Z,4.28
2023-04-02T07:26:26.762Z,4.30
2023-04-02T07:27:26.788Z,4.31
2023-04-02T07:28:26.806Z,4.28
2023-04-02T07:29:26.567Z,4.28
2023-04-02T07:30:26.798Z,4.28
2023-04-02T07:31:26.908Z,4.28
2023-04-02T07:32:26.611Z,4.34
2023-04-02T07:33:26.799Z,4.38
2023-04-02T07:34:26.793Z,4.30
2023-04-02T07:35:27.076Z,4.31
2023-04-02T07:36:26.499Z,4.34
2023-04-02T07:37:26.510Z,4.35
2023-04-02T07:38:26.623Z,4.38
2023-04-02T07:39:26.471Z,4.45
2023-04-02T07:40:26.900Z,4.41
2023-04-02T07:41:26.457Z,4.42
2023-04-02T07:42:26.503Z,4.43
2023-04-02T07:43:26.470Z,4.45
2023-04-02T07:44:26.456Z,4.42
2023-04-02T07:45:26.429Z,4.42
2023-04-02T07:46:26.578Z,4.42
2023-04-02T07:47:26.546Z,4.48
2023-04-02T07:48:26.705Z,4.48
2023-04-02T07:49:27.314Z,4.54
2023-04-02T07:50:26.500Z,4.46
2023-04-02T07:51:27.234Z,4.42
2023-04-02T07:52:27.404Z,4.39
2023-04-02T07:53:26.361Z,4.43
2023-04-02T07:54:27.154Z,4.49
2023-04-02T07:55:26.821Z,4.43
2023-04-02T07:56:26.635Z,4.46
2023-04-02T07:57:26.821Z,4.42
2023-04-02T07:58:27.210Z,4.45
2023-04-02T07:59:26.352Z,4.42
2023-04-02T08:00:26.362Z,4.45
2023-04-02T08:01:26.372Z,4.49
2023-04-02T08:02:26.453Z,4.53
2023-04-02T08:03:26.528Z,4.54
2023-04-02T08:04:26.437Z,4.48
2023-04-02T08:05:26.602Z,4.51
2023-04-02T08:06:26.607Z,4.51
2023-04-02T08:07:26.267Z,4.57
2023-04-02T08:08:26.280Z,4.54
2023-04-02T08:09:26.464Z,4.61
2023-04-02T08:10:26.835Z,4.69
2023-04-02T08:11:26.484Z,4.63
2023-04-02T08:12:26.482Z,4.69
2023-04-02T08:13:26.864Z,4.63
2023-04-02T08:14:26.464Z,4.64
2023-04-02T08:15:26.257Z,4.64
2023-04-02T08:16:26.688Z,4.61
2023-04-02T08:17:27.101Z,4.59
2023-04-02T08:18:27.107Z,4.60
2023-04-02T08:19:26.318Z,4.69
2023-04-02T08:20:26.322Z,4.64
2023-04-02T08:21:26.249Z,4.67
2023-04-02T08:22:26.350Z,4.69
2023-04-02T08:23:26.376Z,4.66
2023-04-02T08:24:26.541Z,4.61
2023-04-02T08:25:26.395Z,4.66
2023-04-02T08:26:26.511Z,4.67
2023-04-02T08:27:26.142Z,4.74
2023-04-02T08:28:26.609Z,4.77
2023-04-02T08:29:26.779Z,4.78
2023-04-02T08:30:26.370Z,4.75
2023-04-02T08:31:26.856Z,4.71
2023-04-02T08:32:26.622Z,4.61
2023-04-02T08:33:26.389Z,4.64
2023-04-02T08:34:26.595Z,4.71
2023-04-02T08:35:26.128Z,4.74
2023-04-02T08:36:26.716Z,4.79
2023-04-02T08:37:26.063Z,4.82
2023-04-02T08:38:26.062Z,4.78
2023-04-02T08:39:26.219Z,4.77
2023-04-02T08:40:26.227Z,4.77
2023-04-02T08:41:26.235Z,4.82
2023-04-02T08:42:26.253Z,4.74
2023-04-02T08:43:26.250Z,4.74
2023-04-02T08:44:26.466Z,4.83
2023-04-02T08:45:26.469Z,4.86
2023-04-02T08:46:26.527Z,5.00
2023-04-02T08:47:26.523Z,5.00
2023-04-02T08:48:26.021Z,5.01
2023-04-02T08:49:26.704Z,5.03
2023-04-02T08:50:26.005Z,5.09
2023-04-02T08:51:26.100Z,5.16
2023-04-02T08:52:26.111Z,5.21
2023-04-02T08:53:25.943Z,5.22
2023-04-02T08:54:25.989Z,5.30
2023-04-02T08:55:26.148Z,5.29
2023-04-02T08:56:25.936Z,5.25
2023-04-02T08:57:25.958Z,5.24
2023-04-02T08:58:25.941Z,5.29
2023-04-02T08:59:25.989Z,5.30
2023-04-02T09:00:25.908Z,5.36
2023-04-02T09:01:25.929Z,5.37
2023-04-02T09:02:26.017Z,5.33
2023-04-02T09:03:26.202Z,5.32
2023-04-02T09:04:25.919Z,5.33
2023-04-02T09:05:25.872Z,5.37
2023-04-02T09:06:25.860Z,5.39
2023-04-02T09:07:25.888Z,5.39
2023-04-02T09:08:25.923Z,5.48
2023-04-02T09:09:25.918Z,5.52
2023-04-02T09:10:25.935Z,5.58
2023-04-02T09:11:25.847Z,5.55
2023-04-02T09:12:25.997Z,5.57
2023-04-02T09:13:25.916Z,5.55
2023-04-02T09:14:25.838Z,5.52
2023-04-02T09:15:25.810Z,5.59
2023-04-02T09:16:25.918Z,5.73
2023-04-02T09:17:25.885Z,5.76
2023-04-02T09:18:26.142Z,5.79
2023-04-02T09:19:25.771Z,5.84
2023-04-02T09:20:25.778Z,5.80
2023-04-02T09:21:26.074Z,5.73
2023-04-02T09:22:25.902Z,5.70
2023-04-02T09:23:26.178Z,5.70
2023-04-02T09:24:25.731Z,5.73
2023-04-02T09:25:25.736Z,5.75
2023-04-02T09:26:25.736Z,5.82
2023-04-02T09:27:25.775Z,5.80
2023-04-02T09:28:25.744Z,5.72
2023-04-02T09:29:25.693Z,5.67
2023-04-02T09:30:25.721Z,5.61
2023-04-02T09:31:25.799Z,5.72
2023-04-02T09:32:25.781Z,5.66
2023-04-02T09:33:25.738Z,5.67
2023-04-02T09:34:25.670Z,5.76
2023-04-02T09:35:27.017Z,5.76
2023-04-02T09:36:25.694Z,5.82
2023-04-02T09:37:25.720Z,5.94
2023-04-02T09:38:25.808Z,5.98
2023-04-02T09:39:25.818Z,5.85
2023-04-02T09:40:25.889Z,5.79
2023-04-02T09:41:25.654Z,5.85
2023-04-02T09:42:25.647Z,5.95
2023-04-02T09:43:25.889Z,6.02
2023-04-02T09:44:25.632Z,6.09
2023-04-02T09:45:25.692Z,6.06
2023-04-02T09:46:25.701Z,6.05
2023-04-02T09:47:25.881Z,6.09
2023-04-02T09:48:25.883Z,6.02
2023-04-02T09:49:25.745Z,6.03
2023-04-02T09:50:25.763Z,6.02
2023-04-02T09:51:25.718Z,6.00
2023-04-02T09:52:25.719Z,5.94
2023-04-02T09:53:25.754Z,5.90
2023-04-02T09:54:25.745Z,5.87
2023-04-02T09:55:25.943Z,5.73
2023-04-02T09:56:25.953Z,5.72
2023-04-02T09:57:26.022Z,5.77
2023-04-02T09:58:25.972Z,5.75
2023-04-02T09:59:25.552Z,5.75
2023-04-02T10:00:39.604Z,5.76
2023-04-02T10:01:25.627Z,5.85
2023-04-02T10:02:26.007Z,5.90
2023-04-02T10:03:25.690Z,5.97
2023-04-02T10:04:26.426Z,5.98
2023-04-02T10:05:39.418Z,5.90
2023-04-02T10:06:25.620Z,5.95
2023-04-02T10:07:25.636Z,5.93
2023-04-02T10:08:25.630Z,5.95
2023-04-02T10:09:25.637Z,6.11
2023-04-02T10:10:26.375Z,6.24
2023-04-02T10:11:30.812Z,6.21
2023-04-02T10:12:25.660Z,6.31
2023-04-02T10:13:25.872Z,6.27
2023-04-02T10:14:25.449Z,6.12
2023-04-02T10:15:25.882Z,6.00
2023-04-02T10:16:27.124Z,6.02
2023-04-02T10:17:25.481Z,6.02
2023-04-02T10:18:25.470Z,6.09
2023-04-02T10:19:25.484Z,6.16
2023-04-02T10:20:25.895Z,6.28
2023-04-02T10:21:26.122Z,6.28
2023-04-02T10:22:26.351Z,6.19
2023-04-02T10:23:25.497Z,6.18
2023-04-02T10:24:26.363Z,6.19
2023-04-02T10:25:26.273Z,6.15
2023-04-02T10:26:25.545Z,6.24
2023-04-02T10:27:25.341Z,6.38
2023-04-02T10:28:25.337Z,6.35
2023-04-02T10:29:25.338Z,6.35
2023-04-02T10:30:25.352Z,6.38
2023-04-02T10:31:25.565Z,6.35
2023-04-02T10:32:25.394Z,6.31
2023-04-02T10:33:25.377Z,6.35
2023-04-02T10:34:25.429Z,6.37
2023-04-02T10:35:25.409Z,6.47
2023-04-02T10:36:25.394Z,6.52
2023-04-02T10:37:25.394Z,6.57
2023-04-02T10:38:25.402Z,6.50
2023-04-02T10:39:25.416Z,6.42
2023-04-02T10:40:25.355Z,6.37
2023-04-02T10:41:25.420Z,6.28
2023-04-02T10:42:25.421Z,6.21
2023-04-02T10:43:25.258Z,6.30
2023-04-02T10:44:25.232Z,6.31
2023-04-02T10:45:25.263Z,6.32
2023-04-02T10:46:25.841Z,6.38
2023-04-02T10:47:25.460Z,6.40
2023-04-02T10:48:25.473Z,6.42
2023-04-02T10:49:25.329Z,6.50
2023-04-02T10:50:25.486Z,6.52
2023-04-02T10:51:25.280Z,6.49
2023-04-02T10:52:25.696Z,6.47
2023-04-02T10:53:25.504Z,6.52
2023-04-02T10:54:25.708Z,6.53
2023-04-02T10:55:25.308Z,6.55
2023-04-02T10:56:25.718Z,6.50
2023-04-02T10:57:25.175Z,6.60
2023-04-02T10:58:25.148Z,6.60
2023-04-02T10:59:25.736Z,6.63
2023-04-02T11:00:25.151Z,6.64
2023-04-02T11:01:25.176Z,6.64
2023-04-02T11:02:25.233Z,6.64
2023-04-02T11:03:25.240Z,6.70
2023-04-02T11:04:25.185Z,6.73
2023-04-02T11:05:25.189Z,6.74
2023-04-02T11:06:25.068Z,6.83
2023-04-02T11:07:25.213Z,6.79
2023-04-02T11:08:25.406Z,6.75
2023-04-02T11:09:25.423Z,6.81
2023-04-02T11:10:25.407Z,6.82
2023-04-02T11:11:25.441Z,6.83
2023-04-02T11:12:25.073Z,6.75
2023-04-02T11:13:25.046Z,6.85
2023-04-02T11:14:25.545Z,6.96
2023-04-02T11:15:25.046Z,6.99
2023-04-02T11:16:25.094Z,6.97
2023-04-02T11:17:25.714Z,7.00
2023-04-02T11:18:25.044Z,7.00
2023-04-02T11:19:25.672Z,6.93
2023-04-02T11:20:25.049Z,7.01
2023-04-02T11:21:25.696Z,7.07
2023-04-02T11:22:25.270Z,7.13
2023-04-02T11:23:25.832Z,7.16
2023-04-02T11:24:25.904Z,7.10
2023-04-02T11:25:25.093Z,7.10
2023-04-02T11:26:25.316Z,7.11
2023-04-02T11:27:25.717Z,7.08
2023-04-02T11:28:25.871Z,6.92
2023-04-02T11:29:25.768Z,6.92
2023-04-02T11:30:25.320Z,6.99
2023-04-02T11:31:24.968Z,6.91
2023-04-02T11:32:25.764Z,6.96
2023-04-02T11:33:34.115Z,7.04
2023-04-02T11:34:24.939Z,7.13
2023-04-02T11:35:25.179Z,7.24
2023-04-02T11:36:24.929Z,7.21
2023-04-02T11:37:26.018Z,7.22
2023-04-02T11:38:25.660Z,7.21
2023-04-02T11:39:24.981Z,7.13
2023-04-02T11:40:24.865Z,7.16
2023-04-02T11:41:24.905Z,7.21
2023-04-02T11:42:25.027Z,7.11
2023-04-02T11:43:25.028Z,7.08
2023-04-02T11:44:25.223Z,7.16
2023-04-02T11:45:25.226Z,7.22
2023-04-02T11:46:24.838Z,7.19
2023-04-02T11:47:25.111Z,7.22
2023-04-02T11:48:24.871Z,7.19
2023-04-02T11:49:24.876Z,7.19
2023-04-02T11:50:25.456Z,7.29
2023-04-02T11:51:25.472Z,7.21
2023-04-02T11:52:25.472Z,7.22
2023-04-02T11:53:25.506Z,7.34
2023-04-02T11:54:25.125Z,7.44
2023-04-02T11:55:25.312Z,7.43
2023-04-02T11:56:25.697Z,7.40
2023-04-02T11:57:25.645Z,7.52
2023-04-02T11:58:24.710Z,7.60
2023-04-02T11:59:24.710Z,7.76
2023-04-02T12:00:24.721Z,7.73
2023-04-02T12:01:24.729Z,7.76
2023-04-02T12:02:25.000Z,7.77
2023-04-02T12:03:24.945Z,7.74
2023-04-02T12:04:24.942Z,7.80
2023-04-02T12:05:24.983Z,7.84
2023-04-02T12:06:24.955Z,7.84
2023-04-02T12:07:24.993Z,7.88
2023-04-02T12:08:25.184Z,7.91
2023-04-02T12:09:25.197Z,7.87
2023-04-02T12:10:24.763Z,7.96
2023-04-02T12:11:24.809Z,8.09
2023-04-02T12:12:24.630Z,8.05
2023-04-02T12:13:24.607Z,7.99
2023-04-02T12:14:24.583Z,8.10
2023-04-02T12:15:24.594Z,8.20
2023-04-02T12:16:24.640Z,8.13
2023-04-02T12:17:24.679Z,7.95
2023-04-02T12:18:24.592Z,7.92
2023-04-02T12:19:24.825Z,7.94
2023-04-02T12:20:24.830Z,7.98
2023-04-02T12:21:24.546Z,8.09
2023-04-02T12:22:24.690Z,8.19
2023-04-02T12:23:24.556Z,8.34
2023-04-02T12:24:24.521Z,8.46
2023-04-02T12:25:24.554Z,8.59
2023-04-02T12:26:24.512Z,8.47
2023-04-02T12:27:24.524Z,8.53
2023-04-02T12:28:25.316Z,8.59
2023-04-02T12:29:25.296Z,8.74
2023-04-02T12:30:25.301Z,9.18
2023-04-02T12:31:24.508Z,9.60
2023-04-02T12:32:26.683Z,10.06
2023-04-02T12:33:25.504Z,10.35
2023-04-02T12:34:25.407Z,10.35
2023-04-02T12:35:25.311Z,10.28
2023-04-02T12:36:25.470Z,10.34
2023-04-02T12:37:25.076Z,10.35
2023-04-02T12:38:25.274Z,10.36
2023-04-02T12:39:27.952Z,10.17
2023-04-02T12:40:25.348Z,9.99
2023-04-02T12:41:25.244Z,10.02
2023-04-02T12:42:25.398Z,10.01
2023-04-02T12:43:24.437Z,10.14
2023-04-02T12:44:24.442Z,10.18
2023-04-02T12:45:27.240Z,10.23
2023-04-02T12:46:25.321Z,10.18
2023-04-02T12:47:25.190Z,10.12
2023-04-02T12:48:25.349Z,10.02
2023-04-02T12:49:25.714Z,9.90
2023-04-02T12:50:25.146Z,9.93
2023-04-02T12:51:25.382Z,9.81
2023-04-02T12:52:24.344Z,9.78
2023-04-02T12:53:24.437Z,9.48
2023-04-02T12:54:24.297Z,9.45
2023-04-02T12:55:24.328Z,9.34
2023-04-02T12:56:24.277Z,9.40
2023-04-02T12:57:24.485Z,9.59
2023-04-02T12:58:24.473Z,9.67
2023-04-02T12:59:24.488Z,9.77
2023-04-02T13:00:24.275Z,9.77
2023-04-02T13:01:24.546Z,9.73
2023-04-02T13:02:24.291Z,9.41
2023-04-02T13:03:24.773Z,9.16
2023-04-02T13:04:24.226Z,9.04
2023-04-02T13:05:24.251Z,9.04
2023-04-02T13:06:24.215Z,9.06
2023-04-02T13:07:24.197Z,9.22
2023-04-02T13:08:24.205Z,9.30
2023-04-02T13:09:24.222Z,9.27
2023-04-02T13:10:24.192Z,9.16
2023-04-02T13:11:24.174Z,9.24
2023-04-02T13:12:24.161Z,9.16
2023-04-02T13:13:24.170Z,9.14
2023-04-02T13:14:24.160Z,9.14
2023-04-02T13:15:24.169Z,9.18
2023-04-02T13:16:24.226Z,9.23
2023-04-02T13:17:24.131Z,9.19
2023-04-02T13:18:24.180Z,9.03